createdAt,value
2023-04-04T00:00:18.133Z,38.09
2023-04-04T00:02:44.705Z,38.69
2023-04-04T00:05:11.397Z,38.06
2023-04-04T00:07:37.938Z,38.34
2023-04-04T00:10:04.695Z,37.69
2023-04-04T00:12:31.312Z,37.70
2023-04-04T00:14:57.935Z,37.88
2023-04-04T00:17:24.496Z,37.82
2023-04-04T00:19:50.998Z,37.92
2023-04-04T00:22:18.992Z,38.62
2023-04-04T00:24:45.515Z,37.82
2023-04-04T00:27:12.048Z,37.89
2023-04-04T00:29:38.586Z,38.02
2023-04-04T00:32:05.409Z,38.24
2023-04-04T00:34:32.028Z,38.11
2023-04-04T00:36:58.860Z,38.21
2023-04-04T00:39:26.522Z,37.85
2023-04-04T00:41:53.187Z,37.76
2023-04-04T00:44:20.439Z,37.64
2023-04-04T00:46:46.976Z,37.54
2023-04-04T00:49:13.646Z,38.41
2023-04-04T00:51:40.168Z,38.85
2023-04-04T00:54:06.805Z,39.18
2023-04-04T00:56:36.902Z,38.37
2023-04-04T00:59:03.584Z,37.65
2023-04-04T01:01:31.558Z,37.95
2023-04-04T01:03:58.410Z,37.92
2023-04-04T01:06:26.433Z,38.45
2023-04-04T01:08:55.211Z,38.48
2023-04-04T01:11:21.974Z,38.04
2023-04-04T01:13:48.681Z,38.60
2023-04-04T01:16:17.130Z,38.46
2023-04-04T01:18:45.221Z,38.04
2023-04-04T01:21:14.169Z,38.69
2023-04-04T01:23:41.220Z,38.21
2023-04-04T01:26:07.974Z,38.33
2023-04-04T01:28:35.384Z,39.15
2023-04-04T01:31:09.746Z,38.97
2023-04-04T01:33:41.258Z,39.46
2023-04-04T01:36:18.866Z,38.90
2023-04-04T01:39:08.651Z,39.22
2023-04-04T01:41:36.222Z,39.22
2023-04-04T01:44:03.989Z,39.25
2023-04-04T01:46:31.355Z,39.29
2023-04-04T01:48:58.146Z,39.54
2023-04-04T01:51:30.977Z,39.73
2023-04-04T01:53:57.628Z,39.18
2023-04-04T01:56:24.962Z,39.77
2023-04-04T01:58:53.659Z,39.17
2023-04-04T02:01:20.424Z,40.11
2023-04-04T02:03:47.561Z,39.67
2023-04-04T02:06:14.360Z,39.97
2023-04-04T02:08:41.389Z,39.62
2023-04-04T02:11:09.544Z,40.05
2023-04-04T02:13:41.147Z,39.74
2023-04-04T02:16:08.296Z,41.15
2023-04-04T02:18:36.136Z,40.51
2023-04-04T02:21:02.837Z,40.09
2023-04-04T02:23:29.385Z,40.63
2023-04-04T02:25:55.993Z,40.57
2023-04-04T02:28:22.684Z,40.53
2023-04-04T02:30:49.262Z,39.99
2023-04-04T02:33:15.844Z,40.08
2023-04-04T02:35:42.616Z,40.41
2023-04-04T02:38:09.240Z,40.28
2023-04-04T02:40:45.732Z,40.38
2023-04-04T02:43:12.531Z,40.99
2023-04-04T02:45:40.025Z,41.33
2023-04-04T02:48:27.416Z,40.96
2023-04-04T02:50:57.803Z,41.46
2023-04-04T02:53:24.329Z,40.72
2023-04-04T02:55:54.096Z,41.58
2023-04-04T02:58:20.741Z,41.92
2023-04-04T03:00:54.053Z,41.72
2023-04-04T03:03:22.043Z,41.63
2023-04-04T03:05:49.976Z,41.85
2023-04-04T03:08:16.568Z,41.47
2023-04-04T03:10:45.033Z,41.26
2023-04-04T03:13:12.228Z,41.38
2023-04-04T03:15:40.809Z,41.70
2023-04-04T03:18:07.638Z,41.55
2023-04-04T03:20:34.699Z,41.57
2023-04-04T03:23:01.288Z,41.36
2023-04-04T03:25:27.929Z,41.20
2023-04-04T03:27:54.795Z,41.63
2023-04-04T03:30:24.360Z,41.74
2023-04-04T03:32:51.275Z,42.14
2023-04-04T03:35:17.838Z,41.59
2023-04-04T03:37:44.608Z,42.09
2023-04-04T03:40:11.505Z,41.97
2023-04-04T03:42:38.556Z,42.13
2023-04-04T03:45:09.324Z,41.76
2023-04-04T03:47:37.034Z,42.17
2023-04-04T03:50:03.769Z,41.94
2023-04-04T03:52:32.194Z,41.95
2023-04-04T03:54:58.755Z,42.76
2023-04-04T03:57:27.092Z,42.08
2023-04-04T03:59:53.648Z,42.36
2023-04-04T04:02:21.944Z,42.25
2023-04-04T04:04:48.464Z,41.84
2023-04-04T04:07:15.391Z,42.26
2023-04-04T04:09:42.231Z,42.54
2023-04-04T04:12:08.753Z,42.65
2023-04-04T04:14:35.306Z,42.54
2023-04-04T04:17:02.659Z,42.41
2023-04-04T04:19:29.996Z,42.24
2023-04-04T04:21:57.363Z,42.38
2023-04-04T04:24:23.949Z,42.00
2023-04-04T04:26:50.526Z,42.72
2023-04-04T04:29:17.087Z,42.34
2023-04-04T04:31:44.008Z,42.40
2023-04-04T04:34:11.319Z,42.46
2023-04-04T04:36:39.782Z,42.43
2023-04-04T04:39:32.707Z,43.14
2023-04-04T04:42:15.915Z,42.57
2023-04-04T04:44:49.461Z,42.56
2023-04-04T04:47:16.567Z,42.88
2023-04-04T04:49:44.555Z,43.94
2023-04-04T04:52:11.889Z,42.53
2023-04-04T04:54:43.653Z,42.67
2023-04-04T04:57:10.661Z,42.80
2023-04-04T04:59:41.344Z,42.02
2023-04-04T05:02:09.851Z,42.45
2023-04-04T05:04:44.836Z,42.43
2023-04-04T05:07:13.314Z,42.52
2023-04-04T05:09:43.060Z,42.23
2023-04-04T05:12:10.295Z,42.27
2023-04-04T05:14:41.035Z,42.53
2023-04-04T05:17:07.646Z,42.36
2023-04-04T05:19:35.196Z,41.99
2023-04-04T05:22:02.566Z,42.69
2023-04-04T05:24:43.650Z,41.71
2023-04-04T05:27:14.245Z,41.79
2023-04-04T05:29:46.797Z,41.84
2023-04-04T05:32:13.592Z,42.04
2023-04-04T05:34:43.457Z,42.41
2023-04-04T05:37:15.040Z,41.75
2023-04-04T05:39:46.553Z,41.67
2023-04-04T05:42:13.667Z,41.42
2023-04-04T05:44:46.253Z,42.07
2023-04-04T05:47:13.360Z,42.02
2023-04-04T05:49:43.871Z,41.37
2023-04-04T05:52:10.669Z,40.76
2023-04-04T05:54:37.966Z,40.11
2023-04-04T05:57:10.709Z,40.84
2023-04-04T05:59:42.104Z,40.76
2023-04-04T06:02:11.299Z,40.63
2023-04-04T06:04:41.420Z,39.50
2023-04-04T06:07:10.201Z,40.42
2023-04-04T06:09:36.821Z,39.27
2023-04-04T06:12:06.591Z,40.44
2023-04-04T06:14:34.193Z,39.44
2023-04-04T06:17:04.359Z,39.17
2023-04-04T06:19:31.315Z,38.91
2023-04-04T06:21:58.122Z,38.67
2023-04-04T06:24:25.450Z,38.65
2023-04-04T06:26:52.929Z,38.63
2023-04-04T06:29:22.802Z,37.91
2023-04-04T06:31:49.797Z,38.30
2023-04-04T06:34:22.663Z,38.15
2023-04-04T06:36:55.498Z,37.77
2023-04-04T06:39:25.061Z,37.69
2023-04-04T06:41:54.083Z,37.50
2023-04-04T06:44:26.134Z,37.18
2023-04-04T06:46:52.773Z,36.51
2023-04-04T06:49:19.363Z,36.65
2023-04-04T06:51:46.748Z,36.47
2023-04-04T06:54:14.127Z,36.84
2023-04-04T06:56:40.670Z,36.93
2023-04-04T06:59:11.284Z,36.24
2023-04-04T07:01:37.877Z,35.99
2023-04-04T07:04:04.468Z,35.80
2023-04-04T07:06:31.400Z,35.90
2023-04-04T07:08:57.995Z,36.43
2023-04-04T07:11:24.630Z,34.95
2023-04-04T07:13:51.625Z,36.21
2023-04-04T07:16:18.302Z,34.09
2023-04-04T07:18:44.998Z,34.37
2023-04-04T07:21:11.572Z,34.00
2023-04-04T07:23:38.120Z,34.36
2023-04-04T07:26:04.849Z,33.67
2023-04-04T07:28:31.460Z,34.02
2023-04-04T07:31:01.897Z,34.16
2023-04-04T07:33:28.461Z,34.14
2023-04-04T07:35:55.056Z,33.77
2023-04-04T07:38:21.885Z,34.45
2023-04-04T07:40:49.994Z,33.13
2023-04-04T07:43:16.672Z,34.40
2023-04-04T07:45:43.382Z,33.25
2023-04-04T07:48:09.914Z,32.48
2023-04-04T07:50:36.479Z,30.74
2023-04-04T07:53:03.083Z,32.67
2023-04-04T07:55:29.625Z,31.67
2023-04-04T07:57:56.261Z,31.73
2023-04-04T08:00:25.772Z,31.03
2023-04-04T08:02:53.906Z,31.94
2023-04-04T08:05:20.722Z,31.40
2023-04-04T08:07:47.358Z,30.87
2023-04-04T08:10:17.383Z,30.77
2023-04-04T08:12:46.746Z,30.23
2023-04-04T08:15:13.567Z,29.99
2023-04-04T08:17:40.700Z,30.02
2023-04-04T08:20:07.769Z,29.69
2023-04-04T08:22:34.287Z,29.54
2023-04-04T08:25:00.933Z,30.37
2023-04-04T08:27:27.582Z,30.26
2023-04-04T08:29:54.099Z,28.45
2023-04-04T08:32:20.774Z,28.56
2023-04-04T08:34:47.903Z,28.40
2023-04-04T08:37:14.742Z,27.90
2023-04-04T08:39:41.262Z,27.68
2023-04-04T08:42:09.340Z,28.00
2023-04-04T08:44:39.608Z,27.71
2023-04-04T08:47:09.433Z,28.10
2023-04-04T08:49:41.037Z,27.90
2023-04-04T08:52:11.559Z,29.43
2023-04-04T08:54:40.623Z,28.18
2023-04-04T08:57:08.321Z,27.20
2023-04-04T08:59:35.476Z,28.06
2023-04-04T09:02:15.881Z,27.56
2023-04-04T09:04:51.359Z,27.03
2023-04-04T09:07:26.312Z,28.04
2023-04-04T09:09:53.872Z,27.00
2023-04-04T09:12:24.790Z,26.59
2023-04-04T09:14:53.109Z,25.71
2023-04-04T09:17:20.066Z,26.69
2023-04-04T09:19:46.758Z,26.14
2023-04-04T09:22:16.124Z,26.58
2023-04-04T09:24:43.475Z,26.27
2023-04-04T09:27:11.661Z,26.38
2023-04-04T09:29:39.420Z,26.75
2023-04-04T09:32:10.546Z,27.56
2023-04-04T09:34:37.800Z,27.79
2023-04-04T09:37:05.672Z,26.40
2023-04-04T09:39:39.087Z,26.58
2023-04-04T09:42:07.468Z,25.40
2023-04-04T09:44:36.868Z,25.25
2023-04-04T09:50:01.766Z,25.62
2023-04-04T09:52:33.164Z,25.50
2023-04-04T09:55:02.433Z,26.46
2023-04-04T09:57:34.413Z,25.88
2023-04-04T10:00:03.390Z,25.39
2023-04-04T10:02:38.841Z,25.22
2023-04-04T10:05:07.090Z,25.83
2023-04-04T10:07:38.489Z,26.03
2023-04-04T10:10:06.665Z,26.32
2023-04-04T10:12:33.277Z,25.25
2023-04-04T10:15:01.144Z,25.40
2023-04-04T10:17:39.428Z,26.00
2023-04-04T10:20:08.918Z,24.80
2023-04-04T10:22:37.755Z,23.41
2023-04-04T10:25:09.223Z,23.70
2023-04-04T10:27:37.913Z,24.02
2023-04-04T10:30:05.024Z,24.01
2023-04-04T10:33:07.584Z,23.14
2023-04-04T10:35:36.110Z,24.37
2023-04-04T10:38:05.207Z,23.85
2023-04-04T10:40:37.797Z,24.75
2023-04-04T10:43:06.579Z,24.52
2023-04-04T10:45:36.235Z,24.85
2023-04-04T10:48:03.653Z,23.68
2023-04-04T10:50:33.168Z,24.88
2023-04-04T10:53:02.094Z,24.93
2023-04-04T10:55:29.493Z,22.69
2023-04-04T10:57:56.867Z,22.87
2023-04-04T11:00:24.237Z,22.39
2023-04-04T11:02:55.788Z,21.19
2023-04-04T11:05:26.698Z,20.75
2023-04-04T11:08:09.410Z,18.96
2023-04-04T11:10:44.605Z,17.60
2023-04-04T11:13:16.220Z,16.60
2023-04-04T11:16:00.370Z,15.30
2023-04-04T11:18:47.796Z,14.83
2023-04-04T11:21:15.296Z,14.65
2023-04-04T11:23:48.392Z,13.67
2023-04-04T11:26:30.309Z,13.67
2023-04-04T11:29:14.206Z,13.44
2023-04-04T11:31:43.914Z,15.34
2023-04-04T11:34:13.088Z,15.75
2023-04-04T11:36:44.831Z,16.49
2023-04-04T11:39:31.854Z,16.50
2023-04-04T11:42:14.786Z,17.25
2023-04-04T11:45:02.019Z,18.60
2023-04-04T11:47:29.424Z,18.88
2023-04-04T11:49:56.675Z,16.51
2023-04-04T11:52:26.198Z,16.92
2023-04-04T11:54:52.860Z,16.97
2023-04-04T11:57:21.119Z,18.27
2023-04-04T11:59:49.683Z,19.05
2023-04-04T12:02:20.142Z,20.47
2023-04-04T12:04:47.541Z,21.65
2023-04-04T12:07:17.486Z,20.86
2023-04-04T12:09:44.504Z,17.62
2023-04-04T12:12:16.299Z,16.36
2023-04-04T12:14:44.202Z,14.92
2023-04-04T12:17:11.581Z,14.21
2023-04-04T12:19:41.201Z,12.98
2023-04-04T12:22:08.266Z,14.87
2023-04-04T12:24:36.303Z,16.62
2023-04-04T12:27:03.564Z,16.72
2023-04-04T12:29:37.406Z,14.43
2023-04-04T12:32:05.189Z,12.95
2023-04-04T12:34:42.367Z,13.33
2023-04-04T12:37:11.348Z,14.23
2023-04-04T12:39:46.226Z,14.42
2023-04-04T12:42:13.716Z,14.72
2023-04-04T12:44:40.584Z,15.04
2023-04-04T12:47:09.801Z,16.89
2023-04-04T12:49:45.221Z,19.28
2023-04-04T12:52:20.594Z,20.39
2023-04-04T12:54:50.937Z,19.47
2023-04-04T12:57:25.716Z,18.15
2023-04-04T12:59:54.668Z,19.16
2023-04-04T13:02:23.342Z,18.70
2023-04-04T13:04:56.943Z,17.94
2023-04-04T13:07:34.735Z,16.66
2023-04-04T13:10:04.713Z,14.73
2023-04-04T13:12:58.455Z,13.21
2023-04-04T13:15:47.954Z,15.37
2023-04-04T13:18:17.132Z,17.23
2023-04-04T13:20:43.879Z,17.43
2023-04-04T13:23:10.824Z,15.94
2023-04-04T13:25:38.410Z,15.12
2023-04-04T13:28:05.798Z,14.96
2023-04-04T13:30:32.417Z,13.16
2023-04-04T13:32:59.677Z,11.90
2023-04-04T13:35:26.972Z,11.21
2023-04-04T13:37:53.505Z,10.42
2023-04-04T13:40:20.176Z,11.70
2023-04-04T13:42:46.678Z,11.28
2023-04-04T13:45:14.424Z,10.50
2023-04-04T13:47:41.203Z,11.28
2023-04-04T13:50:08.327Z,12.73
2023-04-04T13:52:34.853Z,14.08
2023-04-04T13:55:02.960Z,15.35
2023-04-04T13:57:29.485Z,14.81
2023-04-04T13:59:58.909Z,15.22
2023-04-04T14:02:25.722Z,15.30
2023-04-04T14:04:52.585Z,15.26
2023-04-04T14:07:19.544Z,14.16
2023-04-04T14:09:46.321Z,13.34
2023-04-04T14:14:41.280Z,13.38
2023-04-04T14:17:07.843Z,14.30
2023-04-04T14:19:34.376Z,15.94
2023-04-04T14:22:01.015Z,17.18
2023-04-04T14:24:27.581Z,18.17
2023-04-04T14:26:54.150Z,19.19
2023-04-04T14:29:21.820Z,17.53
2023-04-04T14:31:48.367Z,17.43
2023-04-04T14:34:15.505Z,17.41
2023-04-04T14:36:42.210Z,17.96
2023-04-04T14:39:08.792Z,18.21
2023-04-04T14:41:35.356Z,18.60
2023-04-04T14:44:02.192Z,18.78
2023-04-04T14:46:28.764Z,17.92
2023-04-04T14:48:55.383Z,18.81
2023-04-04T14:51:22.003Z,19.41
2023-04-04T14:53:48.751Z,17.87
2023-04-04T14:56:15.364Z,17.69
2023-04-04T14:58:41.903Z,19.34
2023-04-04T15:01:08.594Z,19.22
2023-04-04T15:03:35.256Z,19.39
2023-04-04T15:06:02.965Z,19.02
2023-04-04T15:08:29.481Z,19.05
2023-04-04T15:10:56.292Z,21.23
2023-04-04T15:13:22.998Z,18.01
2023-04-04T15:15:49.546Z,16.52
2023-04-04T15:18:16.548Z,15.68
2023-04-04T15:20:43.525Z,15.71
2023-04-04T15:23:10.486Z,16.78
2023-04-04T15:25:37.029Z,18.43
2023-04-04T15:28:03.578Z,17.53
2023-04-04T15:30:30.895Z,16.81
2023-04-04T15:32:57.573Z,15.91
2023-04-04T15:35:24.329Z,17.03
2023-04-04T15:37:51.178Z,18.04
2023-04-04T15:40:18.844Z,19.11
2023-04-04T15:42:46.300Z,19.96
2023-04-04T15:45:14.454Z,19.88
2023-04-04T15:47:41.843Z,20.54
2023-04-04T15:50:08.716Z,20.55
2023-04-04T15:52:35.534Z,20.98
2023-04-04T15:55:02.864Z,22.58
2023-04-04T15:57:29.449Z,21.84
2023-04-04T15:59:56.047Z,22.07
2023-04-04T16:02:22.777Z,23.16
2023-04-04T16:04:49.377Z,22.13
2023-04-04T16:07:18.965Z,23.28
2023-04-04T16:09:46.061Z,23.26
2023-04-04T16:12:12.585Z,23.84
2023-04-04T16:14:39.175Z,23.14
2023-04-04T16:17:05.702Z,24.44
2023-04-04T16:19:32.248Z,25.02
2023-04-04T16:21:58.811Z,24.68
2023-04-04T16:24:25.523Z,24.25
2023-04-04T16:26:52.078Z,25.01
2023-04-04T16:29:20.297Z,24.47
2023-04-04T16:31:46.971Z,25.44
2023-04-04T16:34:13.727Z,25.46
2023-04-04T16:36:40.377Z,24.96
2023-04-04T16:39:07.365Z,25.70
2023-04-04T16:41:40.594Z,25.25
2023-04-04T16:44:07.199Z,25.49
2023-04-04T16:46:33.739Z,25.49
2023-04-04T16:49:00.341Z,25.92
2023-04-04T16:51:27.761Z,26.06
2023-04-04T16:53:54.666Z,25.66
2023-04-04T16:56:21.262Z,25.85
2023-04-04T16:58:47.822Z,25.33
2023-04-04T17:01:20.681Z,26.23
2023-04-04T17:03:47.423Z,26.64
2023-04-04T17:06:14.032Z,25.98
2023-04-04T17:08:45.122Z,26.31
2023-04-04T17:11:12.999Z,26.09
2023-04-04T17:13:39.556Z,25.33
2023-04-04T17:16:06.262Z,25.65
2023-04-04T17:18:34.035Z,25.59
2023-04-04T17:21:01.264Z,26.14
2023-04-04T17:23:28.279Z,25.89
2023-04-04T17:25:54.855Z,26.55
2023-04-04T17:28:21.509Z,26.73
2023-04-04T17:30:48.083Z,26.36
2023-04-04T17:33:14.799Z,27.34
2023-04-04T17:35:41.389Z,27.30
2023-04-04T17:38:07.946Z,27.40
2023-04-04T17:40:36.322Z,27.45
2023-04-04T17:43:02.893Z,26.78
2023-04-04T17:45:29.535Z,27.73
2023-04-04T17:47:56.222Z,27.49
2023-04-04T17:50:23.066Z,27.37
2023-04-04T17:52:49.727Z,27.73
2023-04-04T17:55:17.817Z,28.26
2023-04-04T17:57:45.006Z,27.85
2023-04-04T18:00:12.746Z,28.09
2023-04-04T18:02:39.321Z,28.04
2023-04-04T18:05:06.861Z,28.21
2023-04-04T18:07:33.439Z,28.31
2023-04-04T18:10:00.006Z,28.13
2023-04-04T18:12:29.984Z,28.87
2023-04-04T18:14:56.657Z,28.69
2023-04-04T18:17:24.768Z,29.23
2023-04-04T18:19:54.521Z,28.74
2023-04-04T18:22:22.552Z,29.01
2023-04-04T18:24:49.424Z,29.25
2023-04-04T18:27:16.220Z,29.52
2023-04-04T18:29:42.978Z,29.46
2023-04-04T18:32:09.692Z,29.15
2023-04-04T18:34:36.304Z,29.34
2023-04-04T18:37:02.853Z,29.46
2023-04-04T18:39:29.592Z,29.79
2023-04-04T18:41:56.651Z,29.16
2023-04-04T18:44:23.342Z,29.29
2023-04-04T18:46:50.006Z,29.34
2023-04-04T18:49:16.579Z,29.53
2023-04-04T18:51:43.084Z,30.22
2023-04-04T18:54:09.614Z,30.04
2023-04-04T18:56:37.962Z,29.83
2023-04-04T18:59:05.553Z,30.05
2023-04-04T19:01:32.788Z,30.68
2023-04-04T19:04:03.036Z,30.22
2023-04-04T19:06:30.908Z,30.43
2023-04-04T19:09:03.712Z,30.47
2023-04-04T19:11:35.655Z,31.01
2023-04-04T19:14:02.635Z,31.17
2023-04-04T19:18:55.902Z,31.05
2023-04-04T19:21:22.434Z,31.81
2023-04-04T19:23:49.108Z,31.48
2023-04-04T19:26:18.012Z,31.51
2023-04-04T19:28:46.318Z,31.98
2023-04-04T19:31:25.077Z,31.98
2023-04-04T19:33:54.882Z,32.72
2023-04-04T19:36:21.605Z,33.27
2023-04-04T19:38:51.490Z,32.87
2023-04-04T19:41:20.271Z,32.39
2023-04-04T19:43:47.865Z,33.31
2023-04-04T19:46:16.828Z,34.00
2023-04-04T19:48:49.390Z,34.13
2023-04-04T19:51:16.590Z,33.73
2023-04-04T19:53:45.077Z,34.74
2023-04-04T19:56:13.322Z,35.06
2023-04-04T19:58:40.460Z,34.53
2023-04-04T20:01:09.176Z,35.02
2023-04-04T20:03:38.022Z,34.72
2023-04-04T20:06:23.040Z,35.00
2023-04-04T20:08:51.993Z,35.25
2023-04-04T20:11:28.723Z,35.00
2023-04-04T20:13:56.927Z,34.96
2023-04-04T20:16:24.737Z,35.04
2023-04-04T20:18:51.894Z,34.94
2023-04-04T20:21:23.007Z,35.25
2023-04-04T20:23:57.678Z,35.14
2023-04-04T20:26:51.444Z,35.61
2023-04-04T20:29:21.789Z,36.08
2023-04-04T20:31:56.736Z,36.68
2023-04-04T20:34:42.837Z,37.30
2023-04-04T20:37:14.255Z,36.27
2023-04-04T20:39:53.217Z,36.70
2023-04-04T20:42:40.339Z,37.03
2023-04-04T20:45:10.318Z,37.57
2023-04-04T20:47:51.529Z,38.66
2023-04-04T20:50:18.405Z,37.57
2023-04-04T20:52:56.341Z,37.65
2023-04-04T20:55:25.407Z,37.76
2023-04-04T20:57:53.947Z,37.72
2023-04-04T21:00:29.751Z,38.31
2023-04-04T21:02:58.058Z,38.50
2023-04-04T21:05:30.033Z,39.02
2023-04-04T21:07:57.363Z,39.28
2023-04-04T21:10:26.902Z,38.56
2023-04-04T21:12:57.146Z,38.92
2023-04-04T21:15:29.049Z,39.02
2023-04-04T21:17:59.109Z,39.74
2023-04-04T21:20:47.148Z,39.20
2023-04-04T21:23:26.113Z,39.53
2023-04-04T21:25:58.860Z,40.05
2023-04-04T21:28:31.596Z,39.82
2023-04-04T21:30:58.878Z,39.62
2023-04-04T21:33:25.733Z,40.08
2023-04-04T21:35:53.659Z,40.19
2023-04-04T21:38:30.805Z,39.70
2023-04-04T21:41:01.112Z,39.71
2023-04-04T21:43:28.343Z,39.91
2023-04-04T21:45:56.113Z,40.11
2023-04-04T21:48:24.058Z,39.78
2023-04-04T21:50:50.850Z,40.23
2023-04-04T21:53:17.469Z,39.92
2023-04-04T21:55:44.998Z,40.41
2023-04-04T21:58:12.681Z,40.27
2023-04-04T22:00:39.538Z,40.05
2023-04-04T22:03:06.830Z,40.28
2023-04-04T22:05:38.923Z,40.78
2023-04-04T22:08:06.102Z,40.81
2023-04-04T22:10:33.022Z,41.00
2023-04-04T22:12:59.709Z,40.86
2023-04-04T22:15:29.702Z,41.62
2023-04-04T22:18:03.863Z,41.08
2023-04-04T22:20:33.552Z,41.16
2023-04-04T22:23:00.141Z,41.46
2023-04-04T22:25:27.188Z,40.80
2023-04-04T22:27:53.804Z,41.36
2023-04-04T22:30:21.599Z,41.28
2023-04-04T22:32:48.472Z,41.64
2023-04-04T22:35:15.326Z,41.74
2023-04-04T22:37:41.877Z,41.67
2023-04-04T22:40:13.102Z,41.19
2023-04-04T22:42:39.774Z,40.99
2023-04-04T22:45:06.821Z,40.85
2023-04-04T22:47:33.362Z,41.05
2023-04-04T22:50:04.560Z,41.61
2023-04-04T22:52:34.590Z,41.90
2023-04-04T22:55:01.249Z,41.71
2023-04-04T22:57:27.772Z,41.97
2023-04-04T22:59:54.330Z,42.12
2023-04-04T23:02:20.834Z,42.38
2023-04-04T23:04:47.388Z,42.57
2023-04-04T23:07:13.964Z,42.90
2023-04-04T23:09:40.510Z,42.71
2023-04-04T23:12:07.491Z,42.72
2023-04-04T23:14:38.868Z,43.15
2023-04-04T23:17:06.799Z,42.96
2023-04-04T23:19:33.355Z,43.30
2023-04-04T23:21:59.919Z,43.45
2023-04-04T23:24:26.439Z,43.56
2023-04-04T23:26:52.999Z,43.11
2023-04-04T23:29:19.633Z,43.01
2023-04-04T23:31:46.304Z,43.87
2023-04-04T23:34:12.925Z,43.72
2023-04-04T23:36:39.457Z,43.11
2023-04-04T23:39:06.267Z,43.56
2023-04-04T23:41:33.069Z,43.17
2023-04-04T23:43:59.828Z,42.98
2023-04-04T23:46:26.533Z,42.78
2023-04-04T23:48:53.103Z,42.75
2023-04-04T23:51:19.696Z,42.81
2023-04-04T23:53:46.221Z,42.53
2023-04-04T23:56:12.766Z,43.12
2023-04-04T23:58:39.428Z,43.00
